sensor_id;sensor_type;location;lat;lon;timestamp;temperature;humidity
67769;DHT22;54569;52.018;5.584;2024-01-15T00:01:42;2.20;99.90
67769;DHT22;54569;52.018;5.584;2024-01-15T00:04:09;2.20;99.90
67769;DHT22;54569;52.018;5.584;2024-01-15T00:06:34;2.30;99.90
67769;DHT22;54569;52.018;5.584;2024-01-15T00:09:00;2.20;99.90
67769;DHT22;54569;52.018;5.584;2024-01-15T00:11:26;2.20;99.90
67769;DHT22;54569;52.018;5.584;2024-01-15T00:13:52;2.20;99.90
67769;DHT22;54569;52.018;5.584;2024-01-15T00:16:18;2.10;99.90
67769;DHT22;54569;52.018;5.584;2024-01-15T00:18:43;2.10;99.90
67769;DHT22;54569;52.018;5.584;2024-01-15T00:21:09;2.10;99.90
67769;DHT22;54569;52.018;5.584;2024-01-15T00:23:35;2.00;99.90
67769;DHT22;54569;52.018;5.584;2024-01-15T00:26:01;2.00;99.90
67769;DHT22;54569;52.018;5.584;2024-01-15T00:28:27;2.00;99.90
67769;DHT22;54569;52.018;5.584;2024-01-15T00:30:52;2.00;99.90
67769;DHT22;54569;52.018;5.584;2024-01-15T00:33:18;1.90;99.90
67769;DHT22;54569;52.018;5.584;2024-01-15T00:35:44;1.90;99.90
67769;DHT22;54569;52.018;5.584;2024-01-15T00:38:10;1.90;99.90
67769;DHT22;54569;52.018;5.584;2024-01-15T00:40:35;1.90;99.90
67769;DHT22;54569;52.018;5.584;2024-01-15T00:43:01;1.90;99.90
67769;DHT22;54569;52.018;5.584;2024-01-15T00:45:28;1.90;99.90
67769;DHT22;54569;52.018;5.584;2024-01-15T00:47:53;1.90;99.90
67769;DHT22;54569;52.018;5.584;2024-01-15T00:50:22;1.80;99.90
67769;DHT22;54569;52.018;5.584;2024-01-15T00:52:47;1.80;99.90
67769;DHT22;54569;52.018;5.584;2024-01-15T00:55:13;1.80;99.90
67769;DHT22;54569;52.018;5.584;2024-01-15T00:57:40;1.80;99.90
67769;DHT22;54569;52.018;5.584;2024-01-15T01:00:06;1.80;99.90
67769;DHT22;54569;52.018;5.584;2024-01-15T01:02:32;1.80;99.90
67769;DHT22;54569;52.018;5.584;2024-01-15T01:04:58;1.80;99.90
67769;DHT22;54569;52.018;5.584;2024-01-15T01:07:23;1.80;99.90
67769;DHT22;54569;52.018;5.584;2024-01-15T01:09:49;1.70;99.90
67769;DHT22;54569;52.018;5.584;2024-01-15T01:12:16;1.80;99.90
67769;DHT22;54569;52.018;5.584;2024-01-15T01:14:42;1.80;99.90
67769;DHT22;54569;52.018;5.584;2024-01-15T01:17:08;1.80;99.90
67769;DHT22;54569;52.018;5.584;2024-01-15T01:19:33;1.80;99.90
67769;DHT22;54569;52.018;5.584;2024-01-15T01:21:59;1.90;99.90
67769;DHT22;54569;52.018;5.584;2024-01-15T01:24:25;1.90;99.90
67769;DHT22;54569;52.018;5.584;2024-01-15T01:26:50;2.00;99.90
67769;DHT22;54569;52.018;5.584;2024-01-15T01:29:16;2.00;99.90
67769;DHT22;54569;52.018;5.584;2024-01-15T01:31:43;2.00;99.90
67769;DHT22;54569;52.018;5.584;2024-01-15T01:34:10;2.00;99.90
67769;DHT22;54569;52.018;5.584;2024-01-15T01:36:35;1.90;99.90
67769;DHT22;54569;52.018;5.584;2024-01-15T01:39:01;1.90;99.90
67769;DHT22;54569;52.018;5.584;2024-01-15T01:41:27;1.90;99.90
67769;DHT22;54569;52.018;5.584;2024-01-15T01:43:52;1.90;99.90
67769;DHT22;54569;52.018;5.584;2024-01-15T01:46:18;1.90;99.90
67769;DHT22;54569;52.018;5.584;2024-01-15T01:48:44;1.90;99.90
67769;DHT22;54569;52.018;5.584;2024-01-15T01:51:10;1.80;99.90
67769;DHT22;54569;52.018;5.584;2024-01-15T01:53:38;1.80;99.90
67769;DHT22;54569;52.018;5.584;2024-01-15T01:56:04;1.80;99.90
67769;DHT22;54569;52.018;5.584;2024-01-15T01:58:31;1.80;99.90
67769;DHT22;54569;52.018;5.584;2024-01-15T02:00:57;1.80;99.90
67769;DHT22;54569;52.018;5.584;2024-01-15T02:03:25;1.80;99.90
67769;DHT22;54569;52.018;5.584;2024-01-15T02:05:52;1.70;99.90
67769;DHT22;54569;52.018;5.584;2024-01-15T02:08:19;1.70;99.90
67769;DHT22;54569;52.018;5.584;2024-01-15T02:10:45;1.70;99.90
67769;DHT22;54569;52.018;5.584;2024-01-15T02:13:11;1.70;99.90
67769;DHT22;54569;52.018;5.584;2024-01-15T02:15:37;1.70;99.90
67769;DHT22;54569;52.018;5.584;2024-01-15T02:18:04;1.60;99.90
67769;DHT22;54569;52.018;5.584;2024-01-15T02:20:32;1.60;99.90
67769;DHT22;54569;52.018;5.584;2024-01-15T02:25:32;1.80;99.90
67769;DHT22;54569;52.018;5.584;2024-01-15T02:27:58;1.80;99.90
67769;DHT22;54569;52.018;5.584;2024-01-15T02:30:25;1.80;99.90
67769;DHT22;54569;52.018;5.584;2024-01-15T02:32:52;1.90;99.90
67769;DHT22;54569;52.018;5.584;2024-01-15T02:35:18;1.90;99.90
67769;DHT22;54569;52.018;5.584;2024-01-15T02:37:43;1.90;99.90
67769;DHT22;54569;52.018;5.584;2024-01-15T02:40:09;1.90;99.90
67769;DHT22;54569;52.018;5.584;2024-01-15T02:42:35;2.00;99.90
67769;DHT22;54569;52.018;5.584;2024-01-15T02:45:01;2.00;99.90
67769;DHT22;54569;52.018;5.584;2024-01-15T02:47:26;2.00;99.90
67769;DHT22;54569;52.018;5.584;2024-01-15T02:49:52;2.00;99.90
67769;DHT22;54569;52.018;5.584;2024-01-15T02:52:18;2.10;99.90
67769;DHT22;54569;52.018;5.584;2024-01-15T02:54:44;2.00;99.90
67769;DHT22;54569;52.018;5.584;2024-01-15T02:57:09;2.00;99.90
67769;DHT22;54569;52.018;5.584;2024-01-15T02:59:35;2.00;99.90
67769;DHT22;54569;52.018;5.584;2024-01-15T03:02:01;2.00;99.90
67769;DHT22;54569;52.018;5.584;2024-01-15T03:04:26;2.10;99.90
67769;DHT22;54569;52.018;5.584;2024-01-15T03:06:52;2.10;99.90
67769;DHT22;54569;52.018;5.584;2024-01-15T03:09:18;2.10;99.90
67769;DHT22;54569;52.018;5.584;2024-01-15T03:11:43;2.10;99.90
67769;DHT22;54569;52.018;5.584;2024-01-15T03:14:09;2.10;99.90
67769;DHT22;54569;52.018;5.584;2024-01-15T03:16:35;2.10;99.90
67769;DHT22;54569;52.018;5.584;2024-01-15T03:19:01;2.10;99.90
67769;DHT22;54569;52.018;5.584;2024-01-15T03:21:27;2.00;99.90
67769;DHT22;54569;52.018;5.584;2024-01-15T03:23:52;2.00;99.90
67769;DHT22;54569;52.018;5.584;2024-01-15T03:26:18;2.00;99.90
67769;DHT22;54569;52.018;5.584;2024-01-15T03:28:44;2.00;99.90
67769;DHT22;54569;52.018;5.584;2024-01-15T03:31:10;1.90;99.90
67769;DHT22;54569;52.018;5.584;2024-01-15T03:33:36;1.90;99.90
67769;DHT22;54569;52.018;5.584;2024-01-15T03:36:01;1.90;99.90
67769;DHT22;54569;52.018;5.584;2024-01-15T03:38:28;1.80;99.90
67769;DHT22;54569;52.018;5.584;2024-01-15T03:40:54;1.80;99.90
67769;DHT22;54569;52.018;5.584;2024-01-15T03:43:20;1.70;99.90
67769;DHT22;54569;52.018;5.584;2024-01-15T03:45:46;1.70;99.90
67769;DHT22;54569;52.018;5.584;2024-01-15T03:48:11;1.60;99.90
67769;DHT22;54569;52.018;5.584;2024-01-15T03:50:37;1.60;99.90
67769;DHT22;54569;52.018;5.584;2024-01-15T03:53:03;1.60;99.90
67769;DHT22;54569;52.018;5.584;2024-01-15T03:55:29;1.60;99.90
67769;DHT22;54569;52.018;5.584;2024-01-15T03:57:54;1.60;99.90
67769;DHT22;54569;52.018;5.584;2024-01-15T04:00:20;1.60;99.90
67769;DHT22;54569;52.018;5.584;2024-01-15T04:02:46;1.60;99.90
67769;DHT22;54569;52.018;5.584;2024-01-15T04:05:12;1.70;99.90
67769;DHT22;54569;52.018;5.584;2024-01-15T04:07:37;1.80;99.90
67769;DHT22;54569;52.018;5.584;2024-01-15T04:10:03;1.80;99.90
67769;DHT22;54569;52.018;5.584;2024-01-15T04:12:29;1.90;99.90
67769;DHT22;54569;52.018;5.584;2024-01-15T04:14:55;1.90;99.90
67769;DHT22;54569;52.018;5.584;2024-01-15T04:17:20;2.00;99.90
67769;DHT22;54569;52.018;5.584;2024-01-15T04:19:47;2.00;99.90
67769;DHT22;54569;52.018;5.584;2024-01-15T04:22:13;2.00;99.90
67769;DHT22;54569;52.018;5.584;2024-01-15T04:24:39;2.10;99.90
67769;DHT22;54569;52.018;5.584;2024-01-15T04:27:06;2.10;99.90
67769;DHT22;54569;52.018;5.584;2024-01-15T04:29:32;2.00;99.90
67769;DHT22;54569;52.018;5.584;2024-01-15T04:31:58;2.00;99.90
67769;DHT22;54569;52.018;5.584;2024-01-15T04:34:23;2.00;99.90
67769;DHT22;54569;52.018;5.584;2024-01-15T04:36:49;2.10;99.90
67769;DHT22;54569;52.018;5.584;2024-01-15T04:39:15;2.10;99.90
67769;DHT22;54569;52.018;5.584;2024-01-15T04:41:40;2.00;99.90
67769;DHT22;54569;52.018;5.584;2024-01-15T04:44:06;2.00;99.90
67769;DHT22;54569;52.018;5.584;2024-01-15T04:46:32;1.90;99.90
67769;DHT22;54569;52.018;5.584;2024-01-15T04:48:57;1.90;99.90
67769;DHT22;54569;52.018;5.584;2024-01-15T04:51:23;1.80;99.90
67769;DHT22;54569;52.018;5.584;2024-01-15T04:53:49;1.80;99.90
67769;DHT22;54569;52.018;5.584;2024-01-15T04:56:15;1.80;99.90
67769;DHT22;54569;52.018;5.584;2024-01-15T04:58:40;1.70;99.90
67769;DHT22;54569;52.018;5.584;2024-01-15T05:01:08;1.70;99.90
67769;DHT22;54569;52.018;5.584;2024-01-15T05:03:33;1.70;99.90
67769;DHT22;54569;52.018;5.584;2024-01-15T05:05:59;1.60;99.90
67769;DHT22;54569;52.018;5.584;2024-01-15T05:08:25;1.60;99.90
67769;DHT22;54569;52.018;5.584;2024-01-15T05:10:51;1.60;99.90
67769;DHT22;54569;52.018;5.584;2024-01-15T05:13:16;1.60;99.90
67769;DHT22;54569;52.018;5.584;2024-01-15T05:15:42;1.60;99.90
67769;DHT22;54569;52.018;5.584;2024-01-15T05:18:08;1.60;99.90
67769;DHT22;54569;52.018;5.584;2024-01-15T05:20:34;1.60;99.90
67769;DHT22;54569;52.018;5.584;2024-01-15T05:22:59;1.60;99.90
67769;DHT22;54569;52.018;5.584;2024-01-15T05:25:25;1.60;99.90
67769;DHT22;54569;52.018;5.584;2024-01-15T05:27:51;1.70;99.90
67769;DHT22;54569;52.018;5.584;2024-01-15T05:30:17;1.70;99.90
67769;DHT22;54569;52.018;5.584;2024-01-15T05:32:43;1.70;99.90
67769;DHT22;54569;52.018;5.584;2024-01-15T05:35:08;1.80;99.90
67769;DHT22;54569;52.018;5.584;2024-01-15T05:37:34;1.80;99.90
67769;DHT22;54569;52.018;5.584;2024-01-15T05:40:00;1.80;99.90
67769;DHT22;54569;52.018;5.584;2024-01-15T05:42:26;1.80;99.90
67769;DHT22;54569;52.018;5.584;2024-01-15T05:44:52;1.80;99.90
67769;DHT22;54569;52.018;5.584;2024-01-15T05:47:17;1.80;99.90
67769;DHT22;54569;52.018;5.584;2024-01-15T05:49:44;1.80;99.90
67769;DHT22;54569;52.018;5.584;2024-01-15T05:52:09;1.80;99.90
67769;DHT22;54569;52.018;5.584;2024-01-15T05:54:35;1.80;99.90
67769;DHT22;54569;52.018;5.584;2024-01-15T05:57:01;1.70;99.90
67769;DHT22;54569;52.018;5.584;2024-01-15T05:59:27;1.70;99.90
67769;DHT22;54569;52.018;5.584;2024-01-15T06:01:53;1.70;99.90
67769;DHT22;54569;52.018;5.584;2024-01-15T06:04:19;1.70;99.90
67769;DHT22;54569;52.018;5.584;2024-01-15T06:06:45;1.70;99.90
67769;DHT22;54569;52.018;5.584;2024-01-15T06:09:10;1.80;99.90
67769;DHT22;54569;52.018;5.584;2024-01-15T06:11:36;1.80;99.90
67769;DHT22;54569;52.018;5.584;2024-01-15T06:14:02;1.80;99.90
67769;DHT22;54569;52.018;5.584;2024-01-15T06:16:28;1.90;99.90
67769;DHT22;54569;52.018;5.584;2024-01-15T06:18:54;1.90;99.90
67769;DHT22;54569;52.018;5.584;2024-01-15T06:21:20;1.90;99.90
67769;DHT22;54569;52.018;5.584;2024-01-15T06:23:46;1.90;99.90
67769;DHT22;54569;52.018;5.584;2024-01-15T06:26:12;1.90;99.90
67769;DHT22;54569;52.018;5.584;2024-01-15T06:28:38;1.90;99.90
67769;DHT22;54569;52.018;5.584;2024-01-15T06:31:04;1.90;99.90
67769;DHT22;54569;52.018;5.584;2024-01-15T06:33:31;1.90;99.90
67769;DHT22;54569;52.018;5.584;2024-01-15T06:35:56;2.00;99.90
67769;DHT22;54569;52.018;5.584;2024-01-15T06:38:22;1.90;99.90
67769;DHT22;54569;52.018;5.584;2024-01-15T06:40:48;1.90;99.90
67769;DHT22;54569;52.018;5.584;2024-01-15T06:43:15;1.80;99.90
67769;DHT22;54569;52.018;5.584;2024-01-15T06:45:46;1.80;99.90
67769;DHT22;54569;52.018;5.584;2024-01-15T06:48:11;1.80;99.90
67769;DHT22;54569;52.018;5.584;2024-01-15T06:50:42;1.70;99.90
67769;DHT22;54569;52.018;5.584;2024-01-15T06:53:08;1.70;99.90
67769;DHT22;54569;52.018;5.584;2024-01-15T06:55:34;1.80;99.90
67769;DHT22;54569;52.018;5.584;2024-01-15T06:58:00;1.80;99.90
67769;DHT22;54569;52.018;5.584;2024-01-15T07:00:26;1.80;99.90
67769;DHT22;54569;52.018;5.584;2024-01-15T07:02:53;1.80;99.90
67769;DHT22;54569;52.018;5.584;2024-01-15T07:05:20;1.80;99.90
67769;DHT22;54569;52.018;5.584;2024-01-15T07:07:46;1.80;99.90
67769;DHT22;54569;52.018;5.584;2024-01-15T07:10:13;1.80;99.90
67769;DHT22;54569;52.018;5.584;2024-01-15T07:12:41;1.80;99.90
67769;DHT22;54569;52.018;5.584;2024-01-15T07:15:07;1.80;99.90
67769;DHT22;54569;52.018;5.584;2024-01-15T07:17:34;1.80;99.90
67769;DHT22;54569;52.018;5.584;2024-01-15T07:20:00;1.80;99.90
67769;DHT22;54569;52.018;5.584;2024-01-15T07:22:25;1.80;99.90
67769;DHT22;54569;52.018;5.584;2024-01-15T07:24:51;1.80;99.90
67769;DHT22;54569;52.018;5.584;2024-01-15T07:27:17;1.80;99.90
67769;DHT22;54569;52.018;5.584;2024-01-15T07:29:42;1.80;99.90
67769;DHT22;54569;52.018;5.584;2024-01-15T07:32:08;1.80;99.90
67769;DHT22;54569;52.018;5.584;2024-01-15T07:34:34;1.70;99.90
67769;DHT22;54569;52.018;5.584;2024-01-15T07:37:00;1.70;99.90
67769;DHT22;54569;52.018;5.584;2024-01-15T07:39:26;1.70;99.90
67769;DHT22;54569;52.018;5.584;2024-01-15T07:41:52;1.80;99.90
67769;DHT22;54569;52.018;5.584;2024-01-15T07:44:18;1.80;99.90
67769;DHT22;54569;52.018;5.584;2024-01-15T07:46:47;1.80;99.90
67769;DHT22;54569;52.018;5.584;2024-01-15T07:49:13;1.80;99.90
67769;DHT22;54569;52.018;5.584;2024-01-15T07:51:39;1.70;99.90
67769;DHT22;54569;52.018;5.584;2024-01-15T07:54:09;1.70;99.90
67769;DHT22;54569;52.018;5.584;2024-01-15T07:56:56;1.70;99.90
67769;DHT22;54569;52.018;5.584;2024-01-15T07:59:23;1.70;99.90
67769;DHT22;54569;52.018;5.584;2024-01-15T08:01:48;1.70;99.90
67769;DHT22;54569;52.018;5.584;2024-01-15T08:04:14;1.70;99.90
67769;DHT22;54569;52.018;5.584;2024-01-15T08:06:40;1.70;99.90
67769;DHT22;54569;52.018;5.584;2024-01-15T08:09:06;1.70;99.90
67769;DHT22;54569;52.018;5.584;2024-01-15T08:11:31;1.80;99.90
67769;DHT22;54569;52.018;5.584;2024-01-15T08:13:57;1.80;99.90
67769;DHT22;54569;52.018;5.584;2024-01-15T08:16:23;1.80;99.90
67769;DHT22;54569;52.018;5.584;2024-01-15T08:18:50;1.80;99.90
67769;DHT22;54569;52.018;5.584;2024-01-15T08:21:16;1.80;99.90
67769;DHT22;54569;52.018;5.584;2024-01-15T08:23:42;1.80;99.90
67769;DHT22;54569;52.018;5.584;2024-01-15T08:26:08;1.90;99.90
67769;DHT22;54569;52.018;5.584;2024-01-15T08:28:34;1.90;99.90
67769;DHT22;54569;52.018;5.584;2024-01-15T08:31:00;1.90;99.90
67769;DHT22;54569;52.018;5.584;2024-01-15T08:33:26;1.90;99.90
67769;DHT22;54569;52.018;5.584;2024-01-15T08:35:52;1.90;99.90
67769;DHT22;54569;52.018;5.584;2024-01-15T08:38:18;1.90;99.90
67769;DHT22;54569;52.018;5.584;2024-01-15T08:40:44;1.90;99.90
67769;DHT22;54569;52.018;5.584;2024-01-15T08:43:10;1.90;99.90
67769;DHT22;54569;52.018;5.584;2024-01-15T08:45:36;1.90;99.90
67769;DHT22;54569;52.018;5.584;2024-01-15T08:48:01;1.90;99.90
67769;DHT22;54569;52.018;5.584;2024-01-15T08:50:27;1.90;99.90
67769;DHT22;54569;52.018;5.584;2024-01-15T08:52:53;2.00;99.90
67769;DHT22;54569;52.018;5.584;2024-01-15T08:55:19;2.00;99.90
67769;DHT22;54569;52.018;5.584;2024-01-15T08:57:48;2.00;99.90
67769;DHT22;54569;52.018;5.584;2024-01-15T09:00:14;2.00;99.90
67769;DHT22;54569;52.018;5.584;2024-01-15T09:02:40;2.10;99.90
67769;DHT22;54569;52.018;5.584;2024-01-15T09:05:06;2.10;99.90
67769;DHT22;54569;52.018;5.584;2024-01-15T09:07:32;2.20;99.90
67769;DHT22;54569;52.018;5.584;2024-01-15T09:09:58;2.30;99.90
67769;DHT22;54569;52.018;5.584;2024-01-15T09:12:25;2.40;99.90
67769;DHT22;54569;52.018;5.584;2024-01-15T09:14:51;2.40;99.90
67769;DHT22;54569;52.018;5.584;2024-01-15T09:17:17;2.40;99.90
67769;DHT22;54569;52.018;5.584;2024-01-15T09:19:43;2.50;99.90
67769;DHT22;54569;52.018;5.584;2024-01-15T09:22:09;2.50;99.90
67769;DHT22;54569;52.018;5.584;2024-01-15T09:24:36;2.50;99.90
67769;DHT22;54569;52.018;5.584;2024-01-15T09:27:02;2.50;99.90
67769;DHT22;54569;52.018;5.584;2024-01-15T09:29:28;2.70;99.90
67769;DHT22;54569;52.018;5.584;2024-01-15T09:31:54;3.00;99.90
67769;DHT22;54569;52.018;5.584;2024-01-15T09:34:21;3.00;99.90
67769;DHT22;54569;52.018;5.584;2024-01-15T09:36:47;2.90;99.90
67769;DHT22;54569;52.018;5.584;2024-01-15T09:39:14;2.70;99.90
67769;DHT22;54569;52.018;5.584;2024-01-15T09:41:41;2.60;99.90
67769;DHT22;54569;52.018;5.584;2024-01-15T09:44:08;2.50;99.90
67769;DHT22;54569;52.018;5.584;2024-01-15T09:46:34;2.50;99.90
67769;DHT22;54569;52.018;5.584;2024-01-15T09:49:00;2.50;99.90
67769;DHT22;54569;52.018;5.584;2024-01-15T09:51:31;2.50;99.90
67769;DHT22;54569;52.018;5.584;2024-01-15T09:53:57;3.10;99.90
67769;DHT22;54569;52.018;5.584;2024-01-15T09:56:23;5.20;99.90
67769;DHT22;54569;52.018;5.584;2024-01-15T09:58:50;7.40;99.90
67769;DHT22;54569;52.018;5.584;2024-01-15T10:01:20;8.40;99.90
67769;DHT22;54569;52.018;5.584;2024-01-15T10:03:46;8.50;95.00
67769;DHT22;54569;52.018;5.584;2024-01-15T10:06:16;7.90;92.60
67769;DHT22;54569;52.018;5.584;2024-01-15T10:08:49;7.10;92.50
67769;DHT22;54569;52.018;5.584;2024-01-15T10:11:15;6.20;93.20
67769;DHT22;54569;52.018;5.584;2024-01-15T10:13:43;5.60;94.40
67769;DHT22;54569;52.018;5.584;2024-01-15T10:16:09;5.00;96.20
67769;DHT22;54569;52.018;5.584;2024-01-15T10:18:35;4.60;98.00
67769;DHT22;54569;52.018;5.584;2024-01-15T10:21:11;4.30;99.90
67769;DHT22;54569;52.018;5.584;2024-01-15T10:23:37;4.20;99.90
67769;DHT22;54569;52.018;5.584;2024-01-15T10:26:03;4.40;99.90
67769;DHT22;54569;52.018;5.584;2024-01-15T10:28:30;6.00;99.90
67769;DHT22;54569;52.018;5.584;2024-01-15T10:30:57;8.40;99.90
67769;DHT22;54569;52.018;5.584;2024-01-15T10:33:25;10.70;97.90
67769;DHT22;54569;52.018;5.584;2024-01-15T10:35:53;10.70;88.10
67769;DHT22;54569;52.018;5.584;2024-01-15T10:38:21;9.90;86.00
67769;DHT22;54569;52.018;5.584;2024-01-15T10:40:54;10.10;90.20
67769;DHT22;54569;52.018;5.584;2024-01-15T10:43:20;11.10;88.80
67769;DHT22;54569;52.018;5.584;2024-01-15T10:45:47;10.90;84.10
67769;DHT22;54569;52.018;5.584;2024-01-15T10:48:13;10.00;84.30
67769;DHT22;54569;52.018;5.584;2024-01-15T10:50:39;9.00;85.30
67769;DHT22;54569;52.018;5.584;2024-01-15T10:53:05;8.20;87.70
67769;DHT22;54569;52.018;5.584;2024-01-15T10:55:35;7.50;90.00
67769;DHT22;54569;52.018;5.584;2024-01-15T10:58:02;6.90;91.30
67769;DHT22;54569;52.018;5.584;2024-01-15T11:00:29;6.50;92.50
67769;DHT22;54569;52.018;5.584;2024-01-15T11:02:55;6.10;93.80
67769;DHT22;54569;52.018;5.584;2024-01-15T11:05:24;6.00;95.40
67769;DHT22;54569;52.018;5.584;2024-01-15T11:07:51;5.80;96.70
67769;DHT22;54569;52.018;5.584;2024-01-15T11:16:04;5.30;99.30
67769;DHT22;54569;52.018;5.584;2024-01-15T11:18:34;5.30;99.90
67769;DHT22;54569;52.018;5.584;2024-01-15T11:23:47;5.10;99.90
67769;DHT22;54569;52.018;5.584;2024-01-15T11:28:59;4.90;99.90
67769;DHT22;54569;52.018;5.584;2024-01-15T11:34:10;4.70;99.90
67769;DHT22;54569;52.018;5.584;2024-01-15T11:41:59;4.70;99.90
67769;DHT22;54569;52.018;5.584;2024-01-15T11:44:26;4.70;99.90
67769;DHT22;54569;52.018;5.584;2024-01-15T11:47:02;4.70;99.90
67769;DHT22;54569;52.018;5.584;2024-01-15T11:50:02;4.60;99.90
67769;DHT22;54569;52.018;5.584;2024-01-15T11:52:37;4.60;99.90
67769;DHT22;54569;52.018;5.584;2024-01-15T12:00:10;6.10;99.90
67769;DHT22;54569;52.018;5.584;2024-01-15T12:02:43;6.20;99.20
67769;DHT22;54569;52.018;5.584;2024-01-15T12:05:11;6.40;98.40
67769;DHT22;54569;52.018;5.584;2024-01-15T12:07:40;6.30;97.40
67769;DHT22;54569;52.018;5.584;2024-01-15T12:12:59;5.90;97.20
67769;DHT22;54569;52.018;5.584;2024-01-15T12:15:26;5.60;97.10
67769;DHT22;54569;52.018;5.584;2024-01-15T12:17:53;5.50;95.70
67769;DHT22;54569;52.018;5.584;2024-01-15T12:20:20;5.30;97.20
67769;DHT22;54569;52.018;5.584;2024-01-15T12:22:45;5.20;97.80
67769;DHT22;54569;52.018;5.584;2024-01-15T12:25:11;5.00;98.20
67769;DHT22;54569;52.018;5.584;2024-01-15T12:27:37;4.90;98.70
67769;DHT22;54569;52.018;5.584;2024-01-15T12:30:04;4.80;98.80
67769;DHT22;54569;52.018;5.584;2024-01-15T12:32:30;4.70;99.30
67769;DHT22;54569;52.018;5.584;2024-01-15T12:34:55;4.60;99.70
67769;DHT22;54569;52.018;5.584;2024-01-15T12:37:21;4.70;99.90
67769;DHT22;54569;52.018;5.584;2024-01-15T12:39:47;4.80;99.90
67769;DHT22;54569;52.018;5.584;2024-01-15T12:42:17;4.80;99.90
67769;DHT22;54569;52.018;5.584;2024-01-15T12:44:45;4.70;99.90
67769;DHT22;54569;52.018;5.584;2024-01-15T12:47:12;4.50;99.90
67769;DHT22;54569;52.018;5.584;2024-01-15T12:49:38;4.40;99.90
67769;DHT22;54569;52.018;5.584;2024-01-15T12:52:08;4.30;99.90
67769;DHT22;54569;52.018;5.584;2024-01-15T12:54:34;4.10;99.90
67769;DHT22;54569;52.018;5.584;2024-01-15T12:57:00;4.10;99.90
67769;DHT22;54569;52.018;5.584;2024-01-15T12:59:26;4.10;99.90
67769;DHT22;54569;52.018;5.584;2024-01-15T13:01:52;4.00;99.90
67769;DHT22;54569;52.018;5.584;2024-01-15T13:04:27;4.00;99.90
67769;DHT22;54569;52.018;5.584;2024-01-15T13:06:53;3.90;99.90
67769;DHT22;54569;52.018;5.584;2024-01-15T13:09:18;3.70;99.90
67769;DHT22;54569;52.018;5.584;2024-01-15T13:11:45;3.60;99.90
67769;DHT22;54569;52.018;5.584;2024-01-15T13:14:11;3.60;99.90
67769;DHT22;54569;52.018;5.584;2024-01-15T13:16:37;3.60;99.90
67769;DHT22;54569;52.018;5.584;2024-01-15T13:19:02;3.60;99.90
67769;DHT22;54569;52.018;5.584;2024-01-15T13:21:30;3.60;99.90
67769;DHT22;54569;52.018;5.584;2024-01-15T13:23:55;3.50;99.90
67769;DHT22;54569;52.018;5.584;2024-01-15T13:26:21;3.50;99.90
67769;DHT22;54569;52.018;5.584;2024-01-15T13:28:47;3.40;99.90
67769;DHT22;54569;52.018;5.584;2024-01-15T13:31:13;3.40;99.90
67769;DHT22;54569;52.018;5.584;2024-01-15T13:33:40;3.40;99.90
67769;DHT22;54569;52.018;5.584;2024-01-15T13:36:06;3.30;99.90
67769;DHT22;54569;52.018;5.584;2024-01-15T13:38:36;3.30;99.90
67769;DHT22;54569;52.018;5.584;2024-01-15T13:41:04;3.30;99.90
67769;DHT22;54569;52.018;5.584;2024-01-15T13:43:31;3.30;99.90
67769;DHT22;54569;52.018;5.584;2024-01-15T13:45:56;3.40;99.90
67769;DHT22;54569;52.018;5.584;2024-01-15T13:48:22;3.60;99.90
67769;DHT22;54569;52.018;5.584;2024-01-15T13:50:48;3.80;99.90
67769;DHT22;54569;52.018;5.584;2024-01-15T13:53:16;3.90;99.90
67769;DHT22;54569;52.018;5.584;2024-01-15T13:55:42;3.90;99.90
67769;DHT22;54569;52.018;5.584;2024-01-15T13:58:07;3.90;99.90
67769;DHT22;54569;52.018;5.584;2024-01-15T14:00:33;3.80;99.90
67769;DHT22;54569;52.018;5.584;2024-01-15T14:02:59;3.80;99.90
67769;DHT22;54569;52.018;5.584;2024-01-15T14:05:25;3.70;99.90
67769;DHT22;54569;52.018;5.584;2024-01-15T14:07:50;3.60;99.90
67769;DHT22;54569;52.018;5.584;2024-01-15T14:10:16;3.50;99.90
67769;DHT22;54569;52.018;5.584;2024-01-15T14:12:43;3.40;99.90
67769;DHT22;54569;52.018;5.584;2024-01-15T14:15:09;3.30;99.90
67769;DHT22;54569;52.018;5.584;2024-01-15T14:17:35;3.30;99.90
67769;DHT22;54569;52.018;5.584;2024-01-15T14:20:00;3.20;99.90
67769;DHT22;54569;52.018;5.584;2024-01-15T14:22:26;3.20;99.90
67769;DHT22;54569;52.018;5.584;2024-01-15T14:24:52;3.20;99.90
67769;DHT22;54569;52.018;5.584;2024-01-15T14:27:18;3.20;99.90
67769;DHT22;54569;52.018;5.584;2024-01-15T14:29:43;3.20;99.90
67769;DHT22;54569;52.018;5.584;2024-01-15T14:32:09;3.20;99.90
67769;DHT22;54569;52.018;5.584;2024-01-15T14:34:35;3.30;99.90
67769;DHT22;54569;52.018;5.584;2024-01-15T14:37:02;3.40;99.90
67769;DHT22;54569;52.018;5.584;2024-01-15T14:39:28;3.40;99.90
67769;DHT22;54569;52.018;5.584;2024-01-15T14:41:54;3.40;99.90
67769;DHT22;54569;52.018;5.584;2024-01-15T14:44:20;3.40;99.90
67769;DHT22;54569;52.018;5.584;2024-01-15T14:46:46;3.40;99.90
67769;DHT22;54569;52.018;5.584;2024-01-15T14:49:12;3.30;99.90
67769;DHT22;54569;52.018;5.584;2024-01-15T14:51:38;3.20;99.90
67769;DHT22;54569;52.018;5.584;2024-01-15T14:54:03;3.10;99.90
67769;DHT22;54569;52.018;5.584;2024-01-15T14:56:29;3.10;99.90
67769;DHT22;54569;52.018;5.584;2024-01-15T14:58:55;3.10;99.90
67769;DHT22;54569;52.018;5.584;2024-01-15T15:01:21;3.00;99.90
67769;DHT22;54569;52.018;5.584;2024-01-15T15:03:48;3.00;99.90
67769;DHT22;54569;52.018;5.584;2024-01-15T15:06:14;3.00;99.90
67769;DHT22;54569;52.018;5.584;2024-01-15T15:08:39;3.00;99.90
67769;DHT22;54569;52.018;5.584;2024-01-15T15:11:06;3.00;99.90
67769;DHT22;54569;52.018;5.584;2024-01-15T15:13:32;2.90;99.90
67769;DHT22;54569;52.018;5.584;2024-01-15T15:15:58;2.90;99.90
67769;DHT22;54569;52.018;5.584;2024-01-15T15:18:23;2.90;99.90
67769;DHT22;54569;52.018;5.584;2024-01-15T15:20:49;2.90;99.90
67769;DHT22;54569;52.018;5.584;2024-01-15T15:23:15;2.90;99.90
67769;DHT22;54569;52.018;5.584;2024-01-15T15:25:41;2.80;99.90
67769;DHT22;54569;52.018;5.584;2024-01-15T15:28:10;2.80;99.90
67769;DHT22;54569;52.018;5.584;2024-01-15T15:30:37;2.70;99.90
67769;DHT22;54569;52.018;5.584;2024-01-15T15:33:03;2.70;99.90
67769;DHT22;54569;52.018;5.584;2024-01-15T15:35:30;2.60;99.90
67769;DHT22;54569;52.018;5.584;2024-01-15T15:37:56;2.60;99.90
67769;DHT22;54569;52.018;5.584;2024-01-15T15:40:22;2.50;99.90
67769;DHT22;54569;52.018;5.584;2024-01-15T15:42:52;2.50;99.90
67769;DHT22;54569;52.018;5.584;2024-01-15T15:45:18;2.40;99.90
67769;DHT22;54569;52.018;5.584;2024-01-15T15:47:43;2.40;99.90
67769;DHT22;54569;52.018;5.584;2024-01-15T15:50:09;2.40;99.90
67769;DHT22;54569;52.018;5.584;2024-01-15T15:52:35;2.40;99.90
67769;DHT22;54569;52.018;5.584;2024-01-15T15:55:01;2.40;99.90
67769;DHT22;54569;52.018;5.584;2024-01-15T15:57:28;2.40;99.90
67769;DHT22;54569;52.018;5.584;2024-01-15T15:59:55;2.50;99.90
67769;DHT22;54569;52.018;5.584;2024-01-15T16:02:21;2.50;99.90
67769;DHT22;54569;52.018;5.584;2024-01-15T16:04:46;2.60;99.90
67769;DHT22;54569;52.018;5.584;2024-01-15T16:07:12;2.60;99.90
67769;DHT22;54569;52.018;5.584;2024-01-15T16:09:39;2.60;99.90